Terminal Aerodrome Forecast
Issued by NWS

Home | Current Version | Previous Version | Text Only | Print | Product List | Glossary On
Versions: 1 2 3 4 5 6 7 8 9 10 11 12 13 14 15 16 17 18
000
FTUS42 KFFC 212300
TAFPDK
TAF
KPDK 212333Z 2200/2224 26004KT P6SM FEW060
     FM220200 27003KT P6SM FEW050 BKN100
     FM220600 29003KT P6SM FEW025 BKN060
     FM221100 33003KT P6SM SCT045
     FM221600 34010KT P6SM FEW250=

USA.gov is the U.S. government's official web portal to all federal, state and local government web resources and services.